sensor_id;sensor_type;location;lat;lon;timestamp;pressure;altitude;pressure_sealevel;temperature;humidity
53940;BME280;39850;43.324;21.916;2023-07-30T00:29:29;989.0;;;19.9;74.0
53940;BME280;39850;43.324;21.916;2023-07-30T00:34:06;989.0;;;19.9;74.0
53940;BME280;39850;43.324;21.916;2023-07-30T00:38:42;989.0;;;20.0;74.0
53940;BME280;39850;43.324;21.916;2023-07-30T00:43:19;989.0;;;20.0;74.0
53940;BME280;39850;43.324;21.916;2023-07-30T00:47:56;989.0;;;20.0;74.0
53940;BME280;39850;43.324;21.916;2023-07-30T00:52:36;989.0;;;20.0;74.0
53940;BME280;39850;43.324;21.916;2023-07-30T00:57:18;989.0;;;20.0;74.0
53940;BME280;39850;43.324;21.916;2023-07-30T01:02:00;989.0;;;20.0;75.0
53940;BME280;39850;43.324;21.916;2023-07-30T01:06:39;989.0;;;20.0;75.0
53940;BME280;39850;43.324;21.916;2023-07-30T01:11:20;989.0;;;20.0;76.0
53940;BME280;39850;43.324;21.916;2023-07-30T01:15:57;989.0;;;20.0;76.0
53940;BME280;39850;43.324;21.916;2023-07-30T01:49:05;989.0;;;19.9;75.0
53940;BME280;39850;43.324;21.916;2023-07-30T01:53:41;989.0;;;19.9;75.0
53940;BME280;39850;43.324;21.916;2023-07-30T01:58:18;989.0;;;19.9;75.0
53940;BME280;39850;43.324;21.916;2023-07-30T02:02:55;989.0;;;19.4;77.0
53940;BME280;39850;43.324;21.916;2023-07-30T02:07:31;989.0;;;19.4;77.0
53940;BME280;39850;43.324;21.916;2023-07-30T02:12:09;989.0;;;19.0;79.0
53940;BME280;39850;43.324;21.916;2023-07-30T02:16:46;989.0;;;19.0;79.0
53940;BME280;39850;43.324;21.916;2023-07-30T02:21:22;989.0;;;18.8;79.0
53940;BME280;39850;43.324;21.916;2023-07-30T02:25:59;989.0;;;18.8;79.0
53940;BME280;39850;43.324;21.916;2023-07-30T02:30:36;989.0;;;18.6;80.0
53940;BME280;39850;43.324;21.916;2023-07-30T02:35:13;989.0;;;18.6;80.0
53940;BME280;39850;43.324;21.916;2023-07-30T03:12:08;989.0;;;18.7;80.0
53940;BME280;39850;43.324;21.916;2023-07-30T03:16:44;989.0;;;18.7;80.0
53940;BME280;39850;43.324;21.916;2023-07-30T03:21:21;989.0;;;18.4;81.0
53940;BME280;39850;43.324;21.916;2023-07-30T03:25:59;989.0;;;18.4;81.0
53940;BME280;39850;43.324;21.916;2023-07-30T03:30:36;989.0;;;18.4;81.0
53940;BME280;39850;43.324;21.916;2023-07-30T03:35:14;989.0;;;18.4;81.0
53940;BME280;39850;43.324;21.916;2023-07-30T03:39:50;989.0;;;18.2;82.0
53940;BME280;39850;43.324;21.916;2023-07-30T03:44:27;989.0;;;18.2;82.0
53940;BME280;39850;43.324;21.916;2023-07-30T03:49:04;989.0;;;18.2;82.0
53940;BME280;39850;43.324;21.916;2023-07-30T03:53:41;989.0;;;18.4;81.0
53940;BME280;39850;43.324;21.916;2023-07-30T03:58:17;989.0;;;18.4;81.0
53940;BME280;39850;43.324;21.916;2023-07-30T04:30:36;989.0;;;20.8;72.0
53940;BME280;39850;43.324;21.916;2023-07-30T04:35:12;989.0;;;20.8;72.0
53940;BME280;39850;43.324;21.916;2023-07-30T04:39:50;989.0;;;21.2;70.0
53940;BME280;39850;43.324;21.916;2023-07-30T04:44:28;989.0;;;21.2;70.0
53940;BME280;39850;43.324;21.916;2023-07-30T04:49:04;989.0;;;21.2;70.0
53940;BME280;39850;43.324;21.916;2023-07-30T04:53:41;989.0;;;21.6;69.0
53940;BME280;39850;43.324;21.916;2023-07-30T04:58:18;989.0;;;21.6;69.0
53940;BME280;39850;43.324;21.916;2023-07-30T05:02:54;989.0;;;21.8;68.0
53940;BME280;39850;43.324;21.916;2023-07-30T05:07:31;989.0;;;21.8;68.0
53940;BME280;39850;43.324;21.916;2023-07-30T05:12:08;989.0;;;21.9;66.0
53940;BME280;39850;43.324;21.916;2023-07-30T05:16:45;989.0;;;21.9;66.0
53940;BME280;39850;43.324;21.916;2023-07-30T05:53:36;989.0;;;25.1;55.0
53940;BME280;39850;43.324;21.916;2023-07-30T05:58:14;989.0;;;25.1;55.0
53940;BME280;39850;43.324;21.916;2023-07-30T06:02:51;989.0;;;25.3;56.0
53940;BME280;39850;43.324;21.916;2023-07-30T06:07:27;989.0;;;25.3;56.0
53940;BME280;39850;43.324;21.916;2023-07-30T06:12:06;989.0;;;25.5;55.0
53940;BME280;39850;43.324;21.916;2023-07-30T06:16:44;989.0;;;25.5;55.0
53940;BME280;39850;43.324;21.916;2023-07-30T06:21:20;989.0;;;25.8;54.0
53940;BME280;39850;43.324;21.916;2023-07-30T06:25:57;989.0;;;25.8;54.0
53940;BME280;39850;43.324;21.916;2023-07-30T06:30:34;989.0;;;26.0;52.0
53940;BME280;39850;43.324;21.916;2023-07-30T06:35:11;989.0;;;26.0;52.0
53940;BME280;39850;43.324;21.916;2023-07-30T07:12:08;988.0;;;27.5;49.0
53940;BME280;39850;43.324;21.916;2023-07-30T07:16:45;988.0;;;27.5;49.0
53940;BME280;39850;43.324;21.916;2023-07-30T07:21:22;988.0;;;27.5;49.0
53940;BME280;39850;43.324;21.916;2023-07-30T07:25:58;988.0;;;27.5;49.0
53940;BME280;39850;43.324;21.916;2023-07-30T07:30:36;988.0;;;28.0;48.0
53940;BME280;39850;43.324;21.916;2023-07-30T07:35:13;988.0;;;28.0;48.0
53940;BME280;39850;43.324;21.916;2023-07-30T07:39:50;988.0;;;28.0;48.0
53940;BME280;39850;43.324;21.916;2023-07-30T07:44:26;988.0;;;28.4;47.0
53940;BME280;39850;43.324;21.916;2023-07-30T07:49:03;988.0;;;28.4;47.0
53940;BME280;39850;43.324;21.916;2023-07-30T07:53:40;988.0;;;28.4;47.0
53940;BME280;39850;43.324;21.916;2023-07-30T07:58:16;988.0;;;28.4;47.0
53940;BME280;39850;43.324;21.916;2023-07-30T08:30:33;988.0;;;29.8;46.0
53940;BME280;39850;43.324;21.916;2023-07-30T08:35:11;988.0;;;29.8;46.0
53940;BME280;39850;43.324;21.916;2023-07-30T08:39:48;988.0;;;29.8;46.0
53940;BME280;39850;43.324;21.916;2023-07-30T08:44:25;988.0;;;29.9;46.0
53940;BME280;39850;43.324;21.916;2023-07-30T08:49:02;988.0;;;29.9;46.0
53940;BME280;39850;43.324;21.916;2023-07-30T08:53:42;988.0;;;29.8;46.0
53940;BME280;39850;43.324;21.916;2023-07-30T08:58:23;988.0;;;29.8;46.0
53940;BME280;39850;43.324;21.916;2023-07-30T09:03:09;988.0;;;29.8;45.0
53940;BME280;39850;43.324;21.916;2023-07-30T09:07:51;988.0;;;29.8;45.0
53940;BME280;39850;43.324;21.916;2023-07-30T09:12:33;988.0;;;29.7;45.0
53940;BME280;39850;43.324;21.916;2023-07-30T09:17:18;988.0;;;29.7;45.0
53940;BME280;39850;43.324;21.916;2023-07-30T09:54:49;987.0;;;29.9;41.0
53940;BME280;39850;43.324;21.916;2023-07-30T09:59:28;987.0;;;29.9;41.0
53940;BME280;39850;43.324;21.916;2023-07-30T10:04:12;987.0;;;29.9;41.0
53940;BME280;39850;43.324;21.916;2023-07-30T10:09:00;987.0;;;29.9;41.0
53940;BME280;39850;43.324;21.916;2023-07-30T10:13:42;987.0;;;30.0;40.0
53940;BME280;39850;43.324;21.916;2023-07-30T10:18:19;987.0;;;30.0;40.0
53940;BME280;39850;43.324;21.916;2023-07-30T10:23:05;987.0;;;30.0;39.0
53940;BME280;39850;43.324;21.916;2023-07-30T10:27:42;987.0;;;30.0;39.0
53940;BME280;39850;43.324;21.916;2023-07-30T10:32:19;987.0;;;30.0;39.0
53940;BME280;39850;43.324;21.916;2023-07-30T10:36:56;987.0;;;30.0;39.0
53940;BME280;39850;43.324;21.916;2023-07-30T11:14:04;986.0;;;29.8;44.0
53940;BME280;39850;43.324;21.916;2023-07-30T11:18:44;986.0;;;29.8;44.0
53940;BME280;39850;43.324;21.916;2023-07-30T11:23:23;986.0;;;29.9;42.0
53940;BME280;39850;43.324;21.916;2023-07-30T11:28:00;986.0;;;29.9;42.0
53940;BME280;39850;43.324;21.916;2023-07-30T11:32:37;986.0;;;29.8;41.0
53940;BME280;39850;43.324;21.916;2023-07-30T11:37:15;986.0;;;29.8;41.0
53940;BME280;39850;43.324;21.916;2023-07-30T11:41:52;986.0;;;29.5;41.0
53940;BME280;39850;43.324;21.916;2023-07-30T11:46:30;986.0;;;29.5;41.0
53940;BME280;39850;43.324;21.916;2023-07-30T11:51:07;985.0;;;29.0;40.0
53940;BME280;39850;43.324;21.916;2023-07-30T11:55:55;985.0;;;29.0;40.0
53940;BME280;39850;43.324;21.916;2023-07-30T12:00:34;985.0;;;29.0;40.0
53940;BME280;39850;43.324;21.916;2023-07-30T12:33:19;985.0;;;29.9;36.0
53940;BME280;39850;43.324;21.916;2023-07-30T12:37:57;985.0;;;29.9;36.0
53940;BME280;39850;43.324;21.916;2023-07-30T12:42:33;985.0;;;30.0;36.0
53940;BME280;39850;43.324;21.916;2023-07-30T12:47:10;985.0;;;30.0;36.0
53940;BME280;39850;43.324;21.916;2023-07-30T12:51:47;985.0;;;30.0;36.0
53940;BME280;39850;43.324;21.916;2023-07-30T12:56:24;985.0;;;30.0;36.0
53940;BME280;39850;43.324;21.916;2023-07-30T13:01:03;985.0;;;30.0;36.0
53940;BME280;39850;43.324;21.916;2023-07-30T13:05:40;985.0;;;30.0;36.0
53940;BME280;39850;43.324;21.916;2023-07-30T13:10:16;985.0;;;30.0;36.0
53940;BME280;39850;43.324;21.916;2023-07-30T13:14:53;985.0;;;30.0;36.0
53940;BME280;39850;43.324;21.916;2023-07-30T13:19:30;985.0;;;30.0;36.0
53940;BME280;39850;43.324;21.916;2023-07-30T13:51:43;984.0;;;30.0;39.0
53940;BME280;39850;43.324;21.916;2023-07-30T13:56:20;984.0;;;30.0;39.0
53940;BME280;39850;43.324;21.916;2023-07-30T14:00:56;984.0;;;30.0;39.0
53940;BME280;39850;43.324;21.916;2023-07-30T14:05:33;984.0;;;29.5;40.0
53940;BME280;39850;43.324;21.916;2023-07-30T14:10:10;984.0;;;29.5;40.0
53940;BME280;39850;43.324;21.916;2023-07-30T14:14:47;983.0;;;29.0;40.0
53940;BME280;39850;43.324;21.916;2023-07-30T14:19:24;983.0;;;29.0;40.0
53940;BME280;39850;43.324;21.916;2023-07-30T14:24:00;983.0;;;29.0;40.0
53940;BME280;39850;43.324;21.916;2023-07-30T14:28:37;983.0;;;29.0;40.0
53940;BME280;39850;43.324;21.916;2023-07-30T14:33:14;983.0;;;29.0;41.0
53940;BME280;39850;43.324;21.916;2023-07-30T14:37:51;983.0;;;29.0;41.0
53940;BME280;39850;43.324;21.916;2023-07-30T15:14:47;983.0;;;29.1;43.0
53940;BME280;39850;43.324;21.916;2023-07-30T15:19:25;983.0;;;29.1;43.0
53940;BME280;39850;43.324;21.916;2023-07-30T15:24:01;983.0;;;28.8;44.0
53940;BME280;39850;43.324;21.916;2023-07-30T15:28:38;983.0;;;28.8;44.0
53940;BME280;39850;43.324;21.916;2023-07-30T15:33:15;983.0;;;28.6;46.0
53940;BME280;39850;43.324;21.916;2023-07-30T15:37:51;983.0;;;28.6;46.0
53940;BME280;39850;43.324;21.916;2023-07-30T15:42:28;983.0;;;28.4;47.0
53940;BME280;39850;43.324;21.916;2023-07-30T15:47:06;983.0;;;28.4;47.0
53940;BME280;39850;43.324;21.916;2023-07-30T15:51:42;983.0;;;28.1;47.0
53940;BME280;39850;43.324;21.916;2023-07-30T15:56:19;983.0;;;28.1;47.0
53940;BME280;39850;43.324;21.916;2023-07-30T16:00:56;983.0;;;28.1;47.0
53940;BME280;39850;43.324;21.916;2023-07-30T16:33:20;983.0;;;27.3;52.0
53940;BME280;39850;43.324;21.916;2023-07-30T16:37:57;983.0;;;27.3;52.0
53940;BME280;39850;43.324;21.916;2023-07-30T16:42:33;983.0;;;27.3;51.0
53940;BME280;39850;43.324;21.916;2023-07-30T16:47:10;983.0;;;27.3;51.0
53940;BME280;39850;43.324;21.916;2023-07-30T16:51:47;983.0;;;27.3;51.0
53940;BME280;39850;43.324;21.916;2023-07-30T16:56:24;983.0;;;27.3;51.0
53940;BME280;39850;43.324;21.916;2023-07-30T17:01:01;983.0;;;27.3;51.0
53940;BME280;39850;43.324;21.916;2023-07-30T17:05:38;983.0;;;27.0;50.0
53940;BME280;39850;43.324;21.916;2023-07-30T17:10:15;983.0;;;27.0;50.0
53940;BME280;39850;43.324;21.916;2023-07-30T17:14:52;983.0;;;26.8;51.0
53940;BME280;39850;43.324;21.916;2023-07-30T17:19:29;983.0;;;26.8;51.0
53940;BME280;39850;43.324;21.916;2023-07-30T17:56:22;988.0;;;21.8;81.0
53940;BME280;39850;43.324;21.916;2023-07-30T18:01:06;988.0;;;21.8;81.0
53940;BME280;39850;43.324;21.916;2023-07-30T18:05:48;988.0;;;21.4;81.0
53940;BME280;39850;43.324;21.916;2023-07-30T18:10:25;988.0;;;21.4;81.0
53940;BME280;39850;43.324;21.916;2023-07-30T18:15:02;988.0;;;21.8;81.0
53940;BME280;39850;43.324;21.916;2023-07-30T18:19:38;988.0;;;21.8;81.0
53940;BME280;39850;43.324;21.916;2023-07-30T18:24:15;988.0;;;21.4;81.0
53940;BME280;39850;43.324;21.916;2023-07-30T18:28:52;988.0;;;21.4;81.0
53940;BME280;39850;43.324;21.916;2023-07-30T18:33:28;988.0;;;21.8;80.0
53940;BME280;39850;43.324;21.916;2023-07-30T18:38:05;988.0;;;21.8;80.0
53940;BME280;39850;43.324;21.916;2023-07-30T19:15:06;988.0;;;21.3;84.0
53940;BME280;39850;43.324;21.916;2023-07-30T19:19:43;988.0;;;21.3;84.0
53940;BME280;39850;43.324;21.916;2023-07-30T19:24:20;988.0;;;21.3;84.0
53940;BME280;39850;43.324;21.916;2023-07-30T19:28:57;988.0;;;21.3;84.0
53940;BME280;39850;43.324;21.916;2023-07-30T19:33:39;988.0;;;21.3;84.0
53940;BME280;39850;43.324;21.916;2023-07-30T19:38:16;988.0;;;21.3;84.0
53940;BME280;39850;43.324;21.916;2023-07-30T19:42:52;988.0;;;21.6;83.0
53940;BME280;39850;43.324;21.916;2023-07-30T19:47:29;988.0;;;21.6;83.0
53940;BME280;39850;43.324;21.916;2023-07-30T19:52:07;988.0;;;21.6;83.0
53940;BME280;39850;43.324;21.916;2023-07-30T19:56:44;988.0;;;21.8;82.0
53940;BME280;39850;43.324;21.916;2023-07-30T20:01:21;988.0;;;21.8;82.0
53940;BME280;39850;43.324;21.916;2023-07-30T20:33:45;988.0;;;22.8;80.0
53940;BME280;39850;43.324;21.916;2023-07-30T20:38:22;988.0;;;22.8;80.0
53940;BME280;39850;43.324;21.916;2023-07-30T20:42:59;988.0;;;22.2;83.0
53940;BME280;39850;43.324;21.916;2023-07-30T20:47:36;988.0;;;22.2;83.0
53940;BME280;39850;43.324;21.916;2023-07-30T20:52:12;988.0;;;22.2;83.0
53940;BME280;39850;43.324;21.916;2023-07-30T20:56:49;988.0;;;21.5;85.0
53940;BME280;39850;43.324;21.916;2023-07-30T21:01:26;988.0;;;21.5;85.0
53940;BME280;39850;43.324;21.916;2023-07-30T21:06:03;988.0;;;21.2;86.0
53940;BME280;39850;43.324;21.916;2023-07-30T21:10:40;988.0;;;21.2;86.0
53940;BME280;39850;43.324;21.916;2023-07-30T21:15:17;988.0;;;20.8;87.0
53940;BME280;39850;43.324;21.916;2023-07-30T21:19:54;988.0;;;20.8;87.0
53940;BME280;39850;43.324;21.916;2023-07-30T21:57:05;988.0;;;21.8;84.0
53940;BME280;39850;43.324;21.916;2023-07-30T22:01:42;988.0;;;21.8;84.0
53940;BME280;39850;43.324;21.916;2023-07-30T22:06:19;988.0;;;21.8;85.0
53940;BME280;39850;43.324;21.916;2023-07-30T22:10:56;988.0;;;21.8;85.0
53940;BME280;39850;43.324;21.916;2023-07-30T22:15:32;988.0;;;21.8;85.0
53940;BME280;39850;43.324;21.916;2023-07-30T22:20:11;988.0;;;21.8;85.0
53940;BME280;39850;43.324;21.916;2023-07-30T22:24:48;988.0;;;21.8;85.0
53940;BME280;39850;43.324;21.916;2023-07-30T22:29:24;988.0;;;21.8;85.0
53940;BME280;39850;43.324;21.916;2023-07-30T22:34:01;988.0;;;21.8;85.0
53940;BME280;39850;43.324;21.916;2023-07-30T22:38:37;988.0;;;21.8;85.0
53940;BME280;39850;43.324;21.916;2023-07-30T23:15:34;988.0;;;21.7;85.0
53940;BME280;39850;43.324;21.916;2023-07-30T23:20:12;988.0;;;21.7;85.0
53940;BME280;39850;43.324;21.916;2023-07-30T23:24:49;988.0;;;21.7;85.0
53940;BME280;39850;43.324;21.916;2023-07-30T23:29:26;988.0;;;21.7;85.0
53940;BME280;39850;43.324;21.916;2023-07-30T23:34:02;988.0;;;21.7;85.0
53940;BME280;39850;43.324;21.916;2023-07-30T23:38:39;988.0;;;21.7;85.0
53940;BME280;39850;43.324;21.916;2023-07-30T23:43:16;988.0;;;21.7;85.0
53940;BME280;39850;43.324;21.916;2023-07-30T23:47:53;988.0;;;21.7;85.0
53940;BME280;39850;43.324;21.916;2023-07-30T23:52:29;988.0;;;21.7;85.0
53940;BME280;39850;43.324;21.916;2023-07-30T23:57:07;988.0;;;21.7;85.0
